KBFL/BFL METAR and TAF weather

Enter ICAO airport designator
Station Type Date Time Source
KBFL METAR 2019/10/15 07:54 UTC NOAA

KBFL 150754Z AUTO 00000KT 10SM CLR 14/M01 A3002 RMK AO2 SLP160 T01441011 402670111


Station Type Date Time Source
KBFL Decoded METAR 2019/10/15 07:54 UTC NOAA

BAKERSFIELD MEADOWS FIELD, CA, United States (KBFL) 35-26N 119-03W 151M
Oct 15, 2019 - 03:54 AM EDT / 2019.10.15 0754 UTC
Wind: Calm:0
Visibility: 10 mile(s):0
Sky conditions: clear
Temperature: 57.9 F (14.4 C)
Dew Point: 30.0 F (-1.1 C)
Relative Humidity: 34%
Pressure (altimeter): 30.02 in. Hg (1016 hPa)
ob: KBFL 150754Z AUTO 00000KT 10SM CLR 14/M01 A3002 RMK AO2 SLP160 T01441011 402670111
cycle: 8

Station Type Date Time Source
KBFL TAF 2019/10/15 06:21 UTC NOAA

TAF KBFL 150520Z 1506/1606 VRB04KT P6SM SKC

Example: see airport list